createdAt,value
2023-01-21T00:02:25.087Z,19.17
2023-01-21T00:04:56.046Z,25.70
2023-01-21T00:07:25.399Z,27.63
2023-01-21T00:09:53.366Z,33.63
2023-01-21T00:12:23.048Z,28.33
2023-01-21T00:14:50.800Z,32.17
2023-01-21T00:17:21.410Z,33.38
2023-01-21T00:22:57.223Z,31.85
2023-01-21T00:25:24.987Z,30.08
2023-01-21T00:27:52.700Z,28.60
2023-01-21T00:30:20.569Z,37.50
2023-01-21T00:32:49.915Z,38.65
2023-01-21T00:35:18.509Z,37.33
2023-01-21T00:37:46.825Z,30.85
2023-01-21T00:40:17.281Z,40.28
2023-01-21T00:42:44.939Z,41.50
2023-01-21T00:45:13.991Z,32.55
2023-01-21T00:47:41.354Z,42.78
2023-01-21T00:50:10.090Z,35.97
2023-01-21T00:52:38.797Z,30.45
2023-01-21T00:55:09.912Z,36.58
2023-01-21T00:57:39.782Z,34.83
2023-01-21T01:00:09.255Z,30.83
2023-01-21T01:02:37.533Z,30.80
2023-01-21T01:05:05.597Z,38.83
2023-01-21T01:07:36.164Z,42.50
2023-01-21T01:10:04.723Z,41.17
2023-01-21T01:12:33.290Z,40.67
2023-01-21T01:15:02.264Z,37.67
2023-01-21T01:17:40.686Z,38.53
2023-01-21T01:20:09.418Z,31.55
2023-01-21T01:22:39.146Z,26.45
2023-01-21T01:25:08.778Z,35.63
2023-01-21T01:27:36.464Z,50.00
2023-01-21T01:30:06.276Z,45.22
2023-01-21T01:32:33.970Z,39.25
2023-01-21T01:35:04.353Z,34.05
2023-01-21T01:37:31.821Z,29.40
2023-01-21T01:42:45.459Z,35.10
2023-01-21T01:45:21.135Z,39.20
2023-01-21T01:47:52.228Z,42.58
2023-01-21T01:50:21.301Z,38.13
2023-01-21T01:52:48.571Z,42.53
2023-01-21T01:55:17.658Z,40.33
2023-01-21T01:57:52.790Z,43.43
2023-01-21T02:00:27.298Z,40.80
2023-01-21T02:02:55.535Z,49.73
2023-01-21T02:05:25.919Z,43.05
2023-01-21T02:07:56.271Z,43.33
2023-01-21T02:10:24.061Z,40.03
2023-01-21T02:12:52.110Z,39.90
2023-01-21T02:15:19.587Z,48.07
2023-01-21T02:18:00.887Z,43.83
2023-01-21T02:20:48.513Z,39.00
2023-01-21T02:23:22.659Z,49.97
2023-01-21T02:26:24.915Z,49.00
2023-01-21T02:29:22.131Z,38.27
2023-01-21T02:32:25.984Z,37.90
2023-01-21T02:35:01.369Z,42.40
2023-01-21T02:37:37.419Z,45.43
2023-01-21T02:40:18.311Z,33.40
2023-01-21T02:42:47.923Z,36.65
2023-01-21T02:45:24.342Z,32.80
2023-01-21T02:48:01.611Z,25.42
2023-01-21T02:50:34.217Z,27.60
2023-01-21T02:53:05.705Z,31.58
2023-01-21T02:55:36.380Z,29.97
2023-01-21T02:58:06.757Z,35.70
2023-01-21T03:00:52.669Z,29.47
2023-01-21T03:03:34.585Z,26.63
2023-01-21T03:06:37.115Z,17.43
2023-01-21T03:09:15.615Z,8.53
2023-01-21T03:11:49.740Z,28.97
2023-01-21T03:14:29.491Z,28.55
2023-01-21T03:17:07.788Z,13.40
2023-01-21T03:19:40.821Z,27.97
2023-01-21T03:22:15.434Z,32.43
2023-01-21T03:24:47.468Z,32.95
2023-01-21T03:27:18.545Z,26.75
2023-01-21T03:29:48.487Z,24.00
2023-01-21T03:32:18.951Z,23.60
2023-01-21T03:34:51.247Z,25.77
2023-01-21T03:37:32.366Z,19.13
2023-01-21T03:40:08.108Z,13.43
2023-01-21T03:42:35.865Z,11.70
2023-01-21T03:45:04.588Z,35.43
2023-01-21T03:47:34.997Z,28.17
2023-01-21T03:50:07.331Z,14.20
2023-01-21T03:52:40.058Z,29.55
2023-01-21T03:55:08.725Z,18.40
2023-01-21T03:57:38.865Z,14.10
2023-01-21T04:00:08.774Z,22.47
2023-01-21T04:02:36.284Z,27.47
2023-01-21T04:05:06.215Z,31.08
2023-01-21T04:07:33.705Z,8.30
2023-01-21T04:10:02.980Z,29.27
2023-01-21T04:12:30.782Z,21.00
2023-01-21T04:14:58.562Z,34.57
2023-01-21T04:17:27.263Z,23.97
2023-01-21T04:19:56.233Z,17.37
2023-01-21T04:22:25.531Z,19.75
2023-01-21T04:24:56.056Z,21.40
2023-01-21T04:27:25.182Z,2.47
2023-01-21T04:29:52.658Z,23.23
2023-01-21T04:32:20.093Z,34.97
2023-01-21T04:34:50.989Z,7.43
2023-01-21T04:37:18.677Z,27.23
2023-01-21T04:39:46.601Z,15.73
2023-01-21T04:42:14.095Z,30.83
2023-01-21T04:44:46.700Z,32.87
2023-01-21T04:47:14.079Z,26.13
2023-01-21T04:49:44.219Z,23.50
2023-01-21T04:52:12.646Z,24.80
2023-01-21T04:54:39.969Z,33.53
2023-01-21T04:57:07.210Z,22.57
2023-01-21T04:59:34.534Z,34.57
2023-01-21T05:02:03.709Z,25.15
2023-01-21T05:04:31.325Z,30.03
2023-01-21T05:07:01.799Z,21.35
2023-01-21T05:09:29.685Z,26.90
2023-01-21T05:11:57.111Z,26.60
2023-01-21T05:14:24.507Z,34.30
2023-01-21T05:16:51.702Z,29.90
2023-01-21T05:19:21.937Z,31.67
2023-01-21T05:21:49.467Z,28.77
2023-01-21T05:24:16.990Z,30.20
2023-01-21T05:26:45.955Z,30.50
2023-01-21T05:29:13.510Z,30.27
2023-01-21T05:31:40.903Z,31.60
2023-01-21T05:34:14.464Z,26.70
2023-01-21T05:36:43.661Z,29.00
2023-01-21T05:39:14.318Z,26.10
2023-01-21T05:41:41.668Z,30.90
2023-01-21T05:44:12.233Z,29.42
2023-01-21T05:46:39.519Z,36.10
2023-01-21T05:49:06.744Z,33.83
2023-01-21T05:51:34.387Z,33.80
2023-01-21T05:54:06.438Z,31.50
2023-01-21T05:56:34.169Z,34.97
2023-01-21T05:59:01.483Z,31.77
2023-01-21T06:01:28.664Z,24.77
2023-01-21T06:03:57.028Z,20.20
2023-01-21T06:06:24.432Z,30.00
2023-01-21T06:08:51.762Z,23.42
2023-01-21T06:11:20.527Z,26.30
2023-01-21T06:13:49.014Z,34.40
2023-01-21T06:16:19.244Z,24.67
2023-01-21T06:18:49.792Z,34.73
2023-01-21T06:21:17.148Z,33.50
2023-01-21T06:23:44.312Z,26.70
2023-01-21T06:26:14.541Z,29.73
2023-01-21T06:28:46.336Z,26.65
2023-01-21T06:31:14.315Z,32.47
2023-01-21T06:33:44.421Z,28.30
2023-01-21T06:36:11.780Z,24.70
2023-01-21T06:38:43.575Z,32.30
2023-01-21T06:41:10.868Z,28.93
2023-01-21T06:43:38.256Z,24.50
2023-01-21T06:46:08.691Z,23.13
2023-01-21T06:48:36.568Z,31.40
2023-01-21T06:51:08.551Z,26.80
2023-01-21T06:53:36.039Z,30.47
2023-01-21T06:56:05.237Z,30.87
2023-01-21T06:58:32.681Z,29.80
2023-01-21T07:01:00.427Z,35.20
2023-01-21T07:03:29.419Z,33.10
2023-01-21T07:05:59.530Z,33.60
2023-01-21T07:08:29.606Z,29.57
2023-01-21T07:10:57.641Z,28.27
2023-01-21T07:13:24.835Z,28.67
2023-01-21T07:15:53.502Z,22.03
2023-01-21T07:18:21.900Z,26.48
2023-01-21T07:20:50.524Z,32.83
2023-01-21T07:23:17.472Z,25.57
2023-01-21T07:25:44.700Z,31.70
2023-01-21T07:28:11.951Z,31.67
2023-01-21T07:30:38.857Z,34.83
2023-01-21T07:33:07.144Z,28.70
2023-01-21T07:35:34.216Z,34.07
2023-01-21T07:38:02.628Z,41.37
2023-01-21T07:40:29.467Z,34.97
2023-01-21T07:42:56.684Z,38.27
2023-01-21T07:45:24.021Z,26.37
2023-01-21T07:47:51.006Z,31.10
2023-01-21T07:50:17.965Z,27.52
2023-01-21T07:52:44.973Z,26.57
2023-01-21T07:55:13.441Z,25.37
2023-01-21T07:57:40.180Z,22.87
2023-01-21T08:00:09.772Z,27.38
2023-01-21T08:02:36.768Z,25.47
2023-01-21T08:05:04.185Z,21.63
2023-01-21T08:07:31.007Z,23.40
2023-01-21T08:09:57.778Z,22.30
2023-01-21T08:12:27.384Z,20.87
2023-01-21T08:14:54.769Z,23.70
2023-01-21T08:17:21.819Z,24.05
2023-01-21T08:19:50.748Z,25.57
2023-01-21T08:22:17.614Z,20.23
2023-01-21T08:24:44.303Z,25.03
2023-01-21T08:27:11.390Z,26.37
2023-01-21T08:29:39.851Z,23.80
2023-01-21T08:32:07.034Z,24.25
2023-01-21T08:34:33.906Z,14.47
2023-01-21T08:37:00.774Z,25.63
2023-01-21T08:39:27.746Z,24.50
2023-01-21T08:41:55.111Z,21.53
2023-01-21T08:44:22.308Z,17.70
2023-01-21T08:46:50.542Z,20.83
2023-01-21T08:49:17.875Z,20.10
2023-01-21T08:51:44.914Z,18.33
2023-01-21T08:54:12.046Z,17.80
2023-01-21T08:56:39.086Z,15.30
2023-01-21T08:59:06.234Z,20.40
2023-01-21T09:01:33.576Z,17.60
2023-01-21T09:07:13.418Z,13.47
2023-01-21T09:09:40.149Z,18.70
2023-01-21T09:12:08.037Z,15.20
2023-01-21T09:14:35.224Z,14.80
2023-01-21T09:17:02.491Z,13.40
2023-01-21T09:19:31.291Z,15.33
2023-01-21T09:21:58.520Z,16.40
2023-01-21T09:24:25.918Z,18.83
2023-01-21T09:26:53.116Z,12.10
2023-01-21T09:29:22.335Z,18.43
2023-01-21T09:31:50.998Z,14.80
2023-01-21T09:34:18.463Z,21.70
2023-01-21T09:36:46.797Z,14.47
2023-01-21T09:39:14.287Z,15.57
2023-01-21T09:41:44.216Z,16.00
2023-01-21T09:44:20.635Z,16.60
2023-01-21T09:46:52.298Z,16.50
2023-01-21T09:49:23.203Z,13.20
2023-01-21T09:51:57.627Z,11.03
2023-01-21T09:54:33.515Z,15.63
2023-01-21T09:57:42.188Z,11.67
2023-01-21T10:00:29.638Z,20.53
2023-01-21T10:03:03.257Z,9.50
2023-01-21T10:05:45.965Z,13.77
2023-01-21T10:08:24.531Z,18.17
2023-01-21T10:11:12.224Z,9.53
2023-01-21T10:14:00.607Z,13.20
2023-01-21T10:16:34.863Z,13.57
2023-01-21T10:19:04.613Z,14.10
2023-01-21T10:21:38.424Z,17.67
2023-01-21T10:24:16.763Z,8.07
2023-01-21T10:26:49.727Z,14.70
2023-01-21T10:29:20.765Z,6.97
2023-01-21T10:31:56.885Z,15.10
2023-01-21T10:34:29.503Z,10.13
2023-01-21T10:37:14.047Z,19.93
2023-01-21T10:39:52.082Z,7.47
2023-01-21T10:42:39.110Z,18.53
2023-01-21T10:45:16.753Z,11.53
2023-01-21T10:47:51.791Z,4.87
2023-01-21T10:50:35.473Z,14.40
2023-01-21T10:53:10.454Z,7.60
2023-01-21T10:55:53.508Z,9.07
2023-01-21T10:58:28.011Z,21.07
2023-01-21T11:00:59.453Z,16.60
2023-01-21T11:03:35.076Z,18.07
2023-01-21T11:06:03.585Z,17.80
2023-01-21T11:08:31.298Z,10.80
2023-01-21T11:11:00.548Z,21.80
2023-01-21T11:13:27.752Z,23.43
2023-01-21T11:15:56.860Z,10.37
2023-01-21T11:18:30.085Z,23.40
2023-01-21T11:21:05.863Z,13.87
2023-01-21T12:33:40.261Z,23.00
2023-01-21T12:36:13.679Z,27.57
2023-01-21T12:38:44.457Z,26.77
2023-01-21T12:41:16.500Z,24.20
2023-01-21T12:43:46.408Z,21.93
2023-01-21T12:46:17.155Z,26.50
2023-01-21T12:48:51.540Z,24.83
2023-01-21T12:51:23.545Z,24.80
2023-01-21T12:53:55.691Z,24.57
2023-01-21T12:56:32.796Z,27.47
2023-01-21T12:59:11.965Z,26.47
2023-01-21T13:01:48.637Z,25.87
2023-01-21T13:04:32.489Z,23.90
2023-01-21T13:07:02.660Z,23.27
2023-01-21T13:09:38.621Z,22.97
2023-01-21T13:12:14.288Z,16.83
2023-01-21T13:14:46.783Z,21.37
2023-01-21T13:17:18.869Z,15.43
2023-01-21T13:19:47.048Z,20.27
2023-01-21T13:22:25.291Z,20.33
2023-01-21T13:25:53.476Z,20.07
2023-01-21T13:28:29.059Z,15.63
2023-01-21T13:31:02.099Z,21.80
2023-01-21T13:33:40.147Z,17.47
2023-01-21T13:36:17.612Z,17.10
2023-01-21T13:38:54.226Z,16.70
2023-01-21T13:41:35.652Z,19.40
2023-01-21T13:44:33.486Z,15.83
2023-01-21T13:47:09.492Z,16.73
2023-01-21T13:50:00.956Z,20.77
2023-01-21T13:52:41.824Z,15.93
2023-01-21T13:55:18.165Z,15.77
2023-01-21T13:58:02.656Z,16.57
2023-01-21T14:00:33.473Z,17.73
2023-01-21T14:03:10.259Z,17.20
2023-01-21T14:05:41.358Z,15.93
2023-01-21T14:08:14.190Z,18.87
2023-01-21T14:10:47.341Z,14.40
2023-01-21T14:13:41.551Z,14.87
2023-01-21T14:16:28.336Z,18.83
2023-01-21T14:19:18.016Z,18.90
2023-01-21T14:21:57.729Z,16.73
2023-01-21T14:24:45.880Z,21.20
2023-01-21T14:27:23.019Z,16.07
2023-01-21T14:29:54.791Z,17.90
2023-01-21T14:32:26.975Z,17.63
2023-01-21T14:35:09.797Z,16.97
2023-01-21T14:37:43.882Z,15.40
2023-01-21T14:40:17.654Z,16.23
2023-01-21T14:42:46.428Z,15.30
2023-01-21T14:45:14.434Z,18.00
2023-01-21T14:47:46.753Z,20.27
2023-01-21T14:50:50.651Z,17.40
2023-01-21T14:53:20.457Z,23.03
2023-01-21T14:56:08.092Z,13.80
2023-01-21T14:58:35.896Z,17.93
2023-01-21T15:01:04.320Z,18.37
2023-01-21T15:03:31.853Z,17.00
2023-01-21T15:06:02.377Z,16.77
2023-01-21T15:08:37.424Z,18.53
2023-01-21T15:11:06.647Z,19.03
2023-01-21T15:13:37.127Z,22.20
2023-01-21T15:16:11.940Z,18.30
2023-01-21T15:18:40.907Z,17.57
2023-01-21T15:21:44.011Z,19.97
2023-01-21T15:24:23.282Z,21.93
2023-01-21T15:27:15.245Z,15.97
2023-01-21T15:29:43.050Z,15.50
2023-01-21T15:32:28.945Z,22.37
2023-01-21T15:34:58.920Z,14.13
2023-01-21T15:37:26.678Z,22.87
2023-01-21T15:39:58.089Z,21.37
2023-01-21T15:42:36.686Z,37.03
2023-01-21T15:45:28.332Z,27.63
2023-01-21T15:48:08.389Z,25.27
2023-01-21T15:50:43.725Z,20.50
2023-01-21T15:53:27.046Z,23.93
2023-01-21T15:56:12.838Z,44.50
2023-01-21T15:58:50.798Z,20.10
2023-01-21T16:01:23.084Z,14.80
2023-01-21T16:04:04.087Z,15.83
2023-01-21T16:06:39.283Z,17.93
2023-01-21T16:09:08.187Z,16.73
2023-01-21T16:11:52.268Z,15.10
2023-01-21T16:14:34.912Z,17.00
2023-01-21T16:17:13.899Z,20.47
2023-01-21T16:19:43.130Z,13.57
2023-01-21T16:22:12.863Z,16.90
2023-01-21T16:24:42.505Z,14.90
2023-01-21T16:27:20.109Z,15.57
2023-01-21T16:29:54.159Z,14.27
2023-01-21T16:32:20.916Z,14.43
2023-01-21T16:34:48.036Z,15.57
2023-01-21T16:37:16.544Z,16.97
2023-01-21T16:39:44.466Z,65.70
2023-01-21T16:42:26.017Z,48.93
2023-01-21T16:44:54.500Z,20.00
2023-01-21T16:47:25.125Z,13.07
2023-01-21T16:49:52.463Z,11.50
2023-01-21T16:52:21.180Z,13.90
2023-01-21T16:54:49.649Z,12.23
2023-01-21T16:57:29.517Z,10.50
2023-01-21T16:59:58.961Z,10.53
2023-01-21T17:02:27.952Z,10.43
2023-01-21T17:04:56.531Z,9.77
2023-01-21T17:07:28.991Z,9.07
2023-01-21T17:10:01.051Z,8.10
2023-01-21T17:12:29.339Z,8.83
2023-01-21T17:15:00.454Z,12.60
2023-01-21T17:17:34.403Z,7.53
2023-01-21T17:20:01.520Z,9.63
2023-01-21T17:22:34.020Z,9.43
2023-01-21T17:25:06.439Z,6.13
2023-01-21T17:27:36.733Z,8.77
2023-01-21T17:30:28.662Z,9.00
2023-01-21T17:32:57.313Z,8.90
2023-01-21T17:35:25.619Z,7.23
2023-01-21T17:37:54.448Z,9.57
2023-01-21T17:40:26.715Z,14.20
2023-01-21T17:42:54.384Z,7.87
2023-01-21T17:45:29.307Z,5.40
2023-01-21T17:48:14.713Z,7.97
2023-01-21T17:50:46.509Z,5.03
2023-01-21T17:53:19.909Z,7.47
2023-01-21T17:55:57.202Z,3.03
2023-01-21T17:58:46.312Z,5.37
2023-01-21T18:01:15.443Z,6.57
2023-01-21T18:03:42.322Z,7.03
2023-01-21T18:06:16.801Z,4.10
2023-01-21T18:08:43.555Z,7.67
2023-01-21T18:11:14.299Z,6.60
2023-01-21T18:13:41.099Z,9.20
2023-01-21T18:16:08.169Z,7.80
2023-01-21T18:18:37.695Z,7.33
2023-01-21T18:21:05.187Z,5.77
2023-01-21T18:23:32.602Z,5.70
2023-01-21T18:25:59.505Z,9.23
2023-01-21T18:28:28.632Z,9.27
2023-01-21T18:30:57.582Z,8.60
2023-01-21T18:33:25.222Z,9.03
2023-01-21T18:35:53.386Z,7.07
2023-01-21T18:38:21.972Z,10.40
2023-01-21T18:40:48.670Z,11.23
2023-01-21T18:43:15.369Z,9.33
2023-01-21T18:45:42.009Z,7.40
2023-01-21T18:48:11.206Z,8.37
2023-01-21T18:50:37.877Z,10.43
2023-01-21T18:53:05.944Z,12.03
2023-01-21T18:55:32.651Z,8.37
2023-01-21T18:57:59.644Z,9.70
2023-01-21T19:00:28.510Z,9.33
2023-01-21T19:02:57.328Z,10.10
2023-01-21T19:05:27.267Z,7.70
2023-01-21T19:07:53.928Z,8.73
2023-01-21T19:10:22.145Z,12.70
2023-01-21T19:12:49.457Z,20.33
2023-01-21T19:15:18.236Z,12.73
2023-01-21T19:17:45.949Z,12.10
2023-01-21T19:20:18.120Z,5.80
2023-01-21T19:22:45.308Z,9.23
2023-01-21T19:25:12.448Z,11.63
2023-01-21T19:27:42.975Z,16.43
2023-01-21T19:30:19.170Z,8.70
2023-01-21T19:32:46.203Z,10.07
2023-01-21T19:35:14.799Z,10.80
2023-01-21T19:37:42.327Z,7.10
2023-01-21T19:40:14.235Z,6.20
2023-01-21T19:42:42.304Z,6.97
2023-01-21T19:45:09.715Z,11.63
2023-01-21T19:47:36.582Z,12.90
2023-01-21T19:50:03.427Z,11.50
2023-01-21T19:52:30.241Z,11.70
2023-01-21T19:54:56.990Z,10.10
2023-01-21T19:57:23.733Z,13.43
2023-01-21T19:59:53.074Z,8.80
2023-01-21T20:02:19.899Z,10.03
2023-01-21T20:04:46.619Z,7.63
2023-01-21T20:07:14.898Z,9.97
2023-01-21T20:09:41.698Z,10.60
2023-01-21T20:12:08.982Z,12.23
2023-01-21T20:14:35.729Z,7.73
2023-01-21T20:17:04.767Z,10.33
2023-01-21T20:19:31.574Z,9.93
2023-01-21T20:22:02.488Z,8.40
2023-01-21T20:24:29.856Z,11.57
2023-01-21T20:26:56.634Z,10.80
2023-01-21T20:29:23.321Z,9.30
2023-01-21T20:31:50.154Z,9.70
2023-01-21T20:34:18.391Z,12.10
2023-01-21T20:36:45.210Z,11.80
2023-01-21T20:39:13.495Z,8.50
2023-01-21T20:41:40.252Z,9.87
2023-01-21T20:44:07.052Z,10.87
2023-01-21T20:46:34.087Z,5.10
2023-01-21T20:49:01.091Z,13.70
2023-01-21T20:51:29.343Z,7.67
2023-01-21T20:53:56.222Z,7.60
2023-01-21T20:56:26.599Z,9.30
2023-01-21T20:58:53.898Z,5.97
2023-01-21T21:01:22.244Z,8.10
2023-01-21T21:03:49.970Z,5.40
2023-01-21T21:06:18.487Z,7.23
2023-01-21T21:08:48.280Z,9.50
2023-01-21T21:11:18.814Z,8.20
2023-01-21T21:13:46.876Z,8.33
2023-01-21T21:16:18.190Z,5.83
2023-01-21T21:18:50.828Z,6.93
2023-01-21T21:21:24.251Z,4.93
2023-01-21T21:23:53.275Z,5.20
2023-01-21T21:26:35.447Z,5.43
2023-01-21T21:29:04.328Z,7.20
2023-01-21T21:31:35.828Z,7.10
2023-01-21T21:34:09.733Z,7.97
2023-01-21T21:36:46.867Z,8.40
2023-01-21T21:39:19.350Z,6.97
2023-01-21T21:41:58.434Z,4.60
2023-01-21T21:44:32.898Z,10.97
2023-01-21T21:47:24.240Z,5.67
2023-01-21T21:49:54.649Z,6.20
2023-01-21T21:52:21.901Z,6.60
2023-01-21T21:54:55.015Z,5.83
2023-01-21T21:57:32.190Z,7.60
2023-01-21T21:59:58.892Z,6.40
2023-01-21T22:02:25.632Z,6.03
2023-01-21T22:04:52.350Z,7.57
2023-01-21T22:07:22.057Z,6.57
2023-01-21T22:09:48.721Z,4.80
2023-01-21T22:12:16.771Z,4.53
2023-01-21T22:14:43.425Z,5.10
2023-01-21T22:17:10.387Z,2.87
2023-01-21T22:19:37.868Z,5.03
2023-01-21T22:22:04.681Z,5.70
2023-01-21T22:24:31.357Z,5.20
2023-01-21T22:26:58.039Z,6.63
2023-01-21T22:29:26.062Z,5.83
2023-01-21T22:31:52.874Z,3.27
2023-01-21T22:34:19.754Z,7.17
2023-01-21T22:36:46.410Z,7.10
2023-01-21T22:39:13.297Z,10.00
2023-01-21T22:41:40.000Z,10.13
2023-01-21T22:44:06.687Z,10.17
2023-01-21T22:46:34.882Z,6.73
2023-01-21T22:49:01.660Z,7.33
2023-01-21T22:51:28.604Z,4.13
2023-01-21T22:53:55.445Z,3.40
2023-01-21T22:56:39.900Z,8.20
2023-01-21T22:59:10.525Z,5.23
2023-01-21T23:01:38.665Z,4.20
2023-01-21T23:04:05.545Z,6.10
2023-01-21T23:06:32.236Z,4.63
2023-01-21T23:08:58.994Z,3.97
2023-01-21T23:11:25.755Z,5.13
2023-01-21T23:13:54.671Z,9.73
2023-01-21T23:16:21.425Z,6.13
2023-01-21T23:18:49.635Z,4.27
2023-01-21T23:21:19.125Z,5.20
2023-01-21T23:23:45.976Z,4.60
2023-01-21T23:26:14.109Z,4.00
2023-01-21T23:28:41.074Z,8.40
2023-01-21T23:31:10.418Z,6.60
2023-01-21T23:33:37.201Z,10.80
2023-01-21T23:36:06.100Z,2.43
2023-01-21T23:38:33.144Z,4.20
2023-01-21T23:41:05.394Z,7.57
2023-01-21T23:43:32.256Z,5.30
2023-01-21T23:45:59.408Z,12.13
2023-01-21T23:48:26.217Z,6.43
2023-01-21T23:50:52.889Z,6.60
2023-01-21T23:53:20.908Z,7.10
2023-01-21T23:55:47.631Z,4.73
2023-01-21T23:58:14.296Z,5.17
